sensor_id;sensor_type;location;lat;lon;timestamp;P1;durP1;ratioP1;P2;durP2;ratioP2
23608;SDS011;11982;50.810;4.442;2023-07-13T00:00:00;15.18;;;3.00;;
23608;SDS011;11982;50.810;4.442;2023-07-13T00:02:25;12.48;;;2.80;;
23608;SDS011;11982;50.810;4.442;2023-07-13T00:04:51;16.88;;;3.13;;
23608;SDS011;11982;50.810;4.442;2023-07-13T00:07:17;12.93;;;3.30;;
23608;SDS011;11982;50.810;4.442;2023-07-13T00:09:46;15.68;;;3.72;;
23608;SDS011;11982;50.810;4.442;2023-07-13T00:12:23;9.90;;;2.88;;
23608;SDS011;11982;50.810;4.442;2023-07-13T00:14:55;14.40;;;2.97;;
23608;SDS011;11982;50.810;4.442;2023-07-13T00:17:21;18.58;;;3.58;;
23608;SDS011;11982;50.810;4.442;2023-07-13T00:19:47;12.65;;;3.55;;
23608;SDS011;11982;50.810;4.442;2023-07-13T00:22:13;11.63;;;2.55;;
23608;SDS011;11982;50.810;4.442;2023-07-13T00:24:38;13.25;;;3.22;;
23608;SDS011;11982;50.810;4.442;2023-07-13T00:27:07;14.30;;;3.42;;
23608;SDS011;11982;50.810;4.442;2023-07-13T00:29:36;9.75;;;2.70;;
23608;SDS011;11982;50.810;4.442;2023-07-13T00:32:06;12.15;;;3.22;;
23608;SDS011;11982;50.810;4.442;2023-07-13T00:34:34;18.63;;;3.42;;
23608;SDS011;11982;50.810;4.442;2023-07-13T00:37:00;13.52;;;3.05;;
23608;SDS011;11982;50.810;4.442;2023-07-13T00:39:25;14.00;;;3.80;;
23608;SDS011;11982;50.810;4.442;2023-07-13T00:41:52;15.48;;;2.85;;
23608;SDS011;11982;50.810;4.442;2023-07-13T00:44:18;13.23;;;3.65;;
23608;SDS011;11982;50.810;4.442;2023-07-13T00:46:46;13.60;;;4.03;;
23608;SDS011;11982;50.810;4.442;2023-07-13T00:49:12;15.85;;;3.58;;
23608;SDS011;11982;50.810;4.442;2023-07-13T00:54:53;14.82;;;3.33;;
23608;SDS011;11982;50.810;4.442;2023-07-13T00:57:16;17.48;;;3.63;;
23608;SDS011;11982;50.810;4.442;2023-07-13T00:59:47;12.23;;;3.30;;
23608;SDS011;11982;50.810;4.442;2023-07-13T01:02:16;14.23;;;3.42;;
23608;SDS011;11982;50.810;4.442;2023-07-13T01:04:43;15.02;;;3.30;;
23608;SDS011;11982;50.810;4.442;2023-07-13T01:07:09;10.50;;;3.08;;
23608;SDS011;11982;50.810;4.442;2023-07-13T01:09:37;20.63;;;3.30;;
23608;SDS011;11982;50.810;4.442;2023-07-13T01:12:02;14.93;;;3.83;;
23608;SDS011;11982;50.810;4.442;2023-07-13T01:14:28;14.07;;;3.55;;
23608;SDS011;11982;50.810;4.442;2023-07-13T01:16:54;8.60;;;2.78;;
23608;SDS011;11982;50.810;4.442;2023-07-13T01:19:36;15.57;;;3.97;;
23608;SDS011;11982;50.810;4.442;2023-07-13T01:22:08;12.98;;;3.83;;
23608;SDS011;11982;50.810;4.442;2023-07-13T01:24:37;13.45;;;3.92;;
23608;SDS011;11982;50.810;4.442;2023-07-13T01:27:04;15.90;;;3.63;;
23608;SDS011;11982;50.810;4.442;2023-07-13T01:29:32;15.20;;;3.55;;
23608;SDS011;11982;50.810;4.442;2023-07-13T01:31:59;16.80;;;3.50;;
23608;SDS011;11982;50.810;4.442;2023-07-13T01:34:26;14.90;;;3.88;;
23608;SDS011;11982;50.810;4.442;2023-07-13T01:36:52;20.88;;;3.67;;
23608;SDS011;11982;50.810;4.442;2023-07-13T01:39:20;12.93;;;3.42;;
23608;SDS011;11982;50.810;4.442;2023-07-13T01:41:47;18.02;;;3.65;;
23608;SDS011;11982;50.810;4.442;2023-07-13T01:44:13;20.38;;;4.03;;
23608;SDS011;11982;50.810;4.442;2023-07-13T01:46:39;18.45;;;3.95;;
23608;SDS011;11982;50.810;4.442;2023-07-13T01:49:04;19.83;;;3.72;;
23608;SDS011;11982;50.810;4.442;2023-07-13T01:51:30;21.83;;;3.75;;
23608;SDS011;11982;50.810;4.442;2023-07-13T01:53:56;15.30;;;3.28;;
23608;SDS011;11982;50.810;4.442;2023-07-13T01:56:22;13.98;;;3.63;;
23608;SDS011;11982;50.810;4.442;2023-07-13T01:58:47;13.45;;;3.65;;
23608;SDS011;11982;50.810;4.442;2023-07-13T02:01:13;19.50;;;3.88;;
23608;SDS011;11982;50.810;4.442;2023-07-13T02:03:39;14.57;;;3.75;;
23608;SDS011;11982;50.810;4.442;2023-07-13T02:06:04;16.70;;;4.80;;
23608;SDS011;11982;50.810;4.442;2023-07-13T02:08:32;22.38;;;5.15;;
23608;SDS011;11982;50.810;4.442;2023-07-13T02:10:58;14.95;;;4.05;;
23608;SDS011;11982;50.810;4.442;2023-07-13T02:13:24;16.20;;;4.28;;
23608;SDS011;11982;50.810;4.442;2023-07-13T02:15:50;17.45;;;4.00;;
23608;SDS011;11982;50.810;4.442;2023-07-13T02:18:16;16.15;;;3.88;;
23608;SDS011;11982;50.810;4.442;2023-07-13T02:20:43;19.00;;;3.90;;
23608;SDS011;11982;50.810;4.442;2023-07-13T02:23:09;17.75;;;4.25;;
23608;SDS011;11982;50.810;4.442;2023-07-13T02:25:34;15.32;;;4.28;;
23608;SDS011;11982;50.810;4.442;2023-07-13T02:28:00;16.42;;;4.22;;
23608;SDS011;11982;50.810;4.442;2023-07-13T02:30:26;26.55;;;4.93;;
23608;SDS011;11982;50.810;4.442;2023-07-13T02:32:55;13.75;;;3.72;;
23608;SDS011;11982;50.810;4.442;2023-07-13T02:35:21;14.65;;;4.20;;
23608;SDS011;11982;50.810;4.442;2023-07-13T02:37:47;20.92;;;4.80;;
23608;SDS011;11982;50.810;4.442;2023-07-13T02:40:13;13.35;;;4.25;;
23608;SDS011;11982;50.810;4.442;2023-07-13T02:42:39;24.15;;;4.90;;
23608;SDS011;11982;50.810;4.442;2023-07-13T02:45:05;15.70;;;4.25;;
23608;SDS011;11982;50.810;4.442;2023-07-13T02:47:32;14.45;;;4.30;;
23608;SDS011;11982;50.810;4.442;2023-07-13T02:49:58;17.30;;;5.28;;
23608;SDS011;11982;50.810;4.442;2023-07-13T02:52:24;15.43;;;4.78;;
23608;SDS011;11982;50.810;4.442;2023-07-13T02:54:50;16.90;;;4.93;;
23608;SDS011;11982;50.810;4.442;2023-07-13T02:57:15;20.67;;;4.82;;
23608;SDS011;11982;50.810;4.442;2023-07-13T02:59:41;27.38;;;5.30;;
23608;SDS011;11982;50.810;4.442;2023-07-13T03:02:07;13.27;;;4.45;;
23608;SDS011;11982;50.810;4.442;2023-07-13T03:04:34;18.23;;;5.03;;
23608;SDS011;11982;50.810;4.442;2023-07-13T03:07:01;22.60;;;5.45;;
23608;SDS011;11982;50.810;4.442;2023-07-13T03:09:27;19.48;;;4.55;;
23608;SDS011;11982;50.810;4.442;2023-07-13T03:11:53;16.85;;;4.70;;
23608;SDS011;11982;50.810;4.442;2023-07-13T03:14:20;20.60;;;5.03;;
23608;SDS011;11982;50.810;4.442;2023-07-13T03:16:47;19.83;;;5.07;;
23608;SDS011;11982;50.810;4.442;2023-07-13T03:19:12;19.10;;;4.50;;
23608;SDS011;11982;50.810;4.442;2023-07-13T03:21:38;18.30;;;4.78;;
23608;SDS011;11982;50.810;4.442;2023-07-13T03:24:04;20.52;;;5.20;;
23608;SDS011;11982;50.810;4.442;2023-07-13T03:26:30;20.58;;;4.47;;
23608;SDS011;11982;50.810;4.442;2023-07-13T03:28:56;17.33;;;4.65;;
23608;SDS011;11982;50.810;4.442;2023-07-13T03:31:24;25.38;;;4.88;;
23608;SDS011;11982;50.810;4.442;2023-07-13T03:33:53;15.20;;;5.35;;
23608;SDS011;11982;50.810;4.442;2023-07-13T03:36:22;20.38;;;4.68;;
23608;SDS011;11982;50.810;4.442;2023-07-13T03:38:51;17.45;;;5.05;;
23608;SDS011;11982;50.810;4.442;2023-07-13T03:41:19;23.63;;;5.30;;
23608;SDS011;11982;50.810;4.442;2023-07-13T03:43:45;21.25;;;5.25;;
23608;SDS011;11982;50.810;4.442;2023-07-13T03:46:13;18.25;;;4.35;;
23608;SDS011;11982;50.810;4.442;2023-07-13T03:48:39;20.02;;;4.85;;
23608;SDS011;11982;50.810;4.442;2023-07-13T03:51:07;18.08;;;4.47;;
23608;SDS011;11982;50.810;4.442;2023-07-13T03:53:35;23.60;;;5.03;;
23608;SDS011;11982;50.810;4.442;2023-07-13T03:56:03;20.67;;;4.72;;
23608;SDS011;11982;50.810;4.442;2023-07-13T04:00:57;28.27;;;5.68;;
23608;SDS011;11982;50.810;4.442;2023-07-13T04:03:23;23.08;;;4.78;;
23608;SDS011;11982;50.810;4.442;2023-07-13T04:05:50;18.55;;;4.85;;
23608;SDS011;11982;50.810;4.442;2023-07-13T04:08:15;23.42;;;4.95;;
23608;SDS011;11982;50.810;4.442;2023-07-13T04:10:41;24.45;;;4.60;;
23608;SDS011;11982;50.810;4.442;2023-07-13T04:13:08;16.25;;;4.68;;
23608;SDS011;11982;50.810;4.442;2023-07-13T04:15:34;19.90;;;5.38;;
23608;SDS011;11982;50.810;4.442;2023-07-13T04:17:59;22.73;;;5.20;;
23608;SDS011;11982;50.810;4.442;2023-07-13T04:20:25;16.67;;;4.63;;
23608;SDS011;11982;50.810;4.442;2023-07-13T04:22:52;21.48;;;4.63;;
23608;SDS011;11982;50.810;4.442;2023-07-13T04:25:20;22.83;;;4.75;;
23608;SDS011;11982;50.810;4.442;2023-07-13T04:27:46;20.42;;;4.95;;
23608;SDS011;11982;50.810;4.442;2023-07-13T04:30:12;20.08;;;4.32;;
23608;SDS011;11982;50.810;4.442;2023-07-13T04:32:38;18.20;;;5.05;;
23608;SDS011;11982;50.810;4.442;2023-07-13T04:35:04;19.33;;;4.40;;
23608;SDS011;11982;50.810;4.442;2023-07-13T04:37:30;23.25;;;5.53;;
23608;SDS011;11982;50.810;4.442;2023-07-13T04:39:55;17.92;;;4.38;;
23608;SDS011;11982;50.810;4.442;2023-07-13T04:42:21;20.45;;;4.80;;
23608;SDS011;11982;50.810;4.442;2023-07-13T04:44:50;19.38;;;4.45;;
23608;SDS011;11982;50.810;4.442;2023-07-13T04:47:17;23.55;;;4.55;;
23608;SDS011;11982;50.810;4.442;2023-07-13T04:49:43;19.17;;;4.10;;
23608;SDS011;11982;50.810;4.442;2023-07-13T04:52:09;21.42;;;4.97;;
23608;SDS011;11982;50.810;4.442;2023-07-13T04:54:35;18.50;;;4.43;;
23608;SDS011;11982;50.810;4.442;2023-07-13T04:57:02;21.02;;;4.80;;
23608;SDS011;11982;50.810;4.442;2023-07-13T04:59:31;22.98;;;4.57;;
23608;SDS011;11982;50.810;4.442;2023-07-13T05:01:57;15.52;;;4.18;;
23608;SDS011;11982;50.810;4.442;2023-07-13T05:04:23;18.95;;;4.80;;
23608;SDS011;11982;50.810;4.442;2023-07-13T05:06:48;15.20;;;4.65;;
23608;SDS011;11982;50.810;4.442;2023-07-13T05:09:14;21.13;;;4.65;;
23608;SDS011;11982;50.810;4.442;2023-07-13T05:11:40;30.25;;;5.20;;
23608;SDS011;11982;50.810;4.442;2023-07-13T05:14:05;29.20;;;5.15;;
23608;SDS011;11982;50.810;4.442;2023-07-13T05:16:31;28.38;;;4.35;;
23608;SDS011;11982;50.810;4.442;2023-07-13T05:18:57;22.27;;;5.18;;
23608;SDS011;11982;50.810;4.442;2023-07-13T05:21:23;22.90;;;4.63;;
23608;SDS011;11982;50.810;4.442;2023-07-13T05:23:49;20.67;;;4.43;;
23608;SDS011;11982;50.810;4.442;2023-07-13T05:26:15;24.20;;;4.38;;
23608;SDS011;11982;50.810;4.442;2023-07-13T05:28:41;17.52;;;4.93;;
23608;SDS011;11982;50.810;4.442;2023-07-13T05:31:08;23.80;;;5.93;;
23608;SDS011;11982;50.810;4.442;2023-07-13T05:33:34;21.70;;;4.90;;
23608;SDS011;11982;50.810;4.442;2023-07-13T05:36:00;26.45;;;5.85;;
23608;SDS011;11982;50.810;4.442;2023-07-13T05:38:26;22.50;;;4.63;;
23608;SDS011;11982;50.810;4.442;2023-07-13T05:40:53;16.85;;;4.47;;
23608;SDS011;11982;50.810;4.442;2023-07-13T05:43:20;19.92;;;4.53;;
23608;SDS011;11982;50.810;4.442;2023-07-13T05:45:47;24.52;;;5.43;;
23608;SDS011;11982;50.810;4.442;2023-07-13T05:48:14;23.58;;;4.32;;
23608;SDS011;11982;50.810;4.442;2023-07-13T05:50:39;28.33;;;5.60;;
23608;SDS011;11982;50.810;4.442;2023-07-13T05:53:05;21.05;;;4.88;;
23608;SDS011;11982;50.810;4.442;2023-07-13T05:55:31;21.60;;;4.18;;
23608;SDS011;11982;50.810;4.442;2023-07-13T05:57:57;21.40;;;4.78;;
23608;SDS011;11982;50.810;4.442;2023-07-13T06:00:24;18.70;;;4.43;;
23608;SDS011;11982;50.810;4.442;2023-07-13T06:02:50;20.13;;;4.78;;
23608;SDS011;11982;50.810;4.442;2023-07-13T06:05:16;21.65;;;4.68;;
23608;SDS011;11982;50.810;4.442;2023-07-13T06:07:41;21.92;;;4.78;;
23608;SDS011;11982;50.810;4.442;2023-07-13T06:10:07;18.92;;;5.32;;
23608;SDS011;11982;50.810;4.442;2023-07-13T06:12:33;17.50;;;4.97;;
23608;SDS011;11982;50.810;4.442;2023-07-13T06:14:59;22.83;;;4.70;;
23608;SDS011;11982;50.810;4.442;2023-07-13T06:17:25;28.35;;;5.35;;
23608;SDS011;11982;50.810;4.442;2023-07-13T06:19:50;21.25;;;4.35;;
23608;SDS011;11982;50.810;4.442;2023-07-13T06:22:16;16.65;;;3.90;;
23608;SDS011;11982;50.810;4.442;2023-07-13T06:24:42;22.27;;;4.68;;
23608;SDS011;11982;50.810;4.442;2023-07-13T06:27:08;24.02;;;5.50;;
23608;SDS011;11982;50.810;4.442;2023-07-13T06:29:35;27.77;;;4.72;;
23608;SDS011;11982;50.810;4.442;2023-07-13T06:32:25;17.80;;;4.68;;
23608;SDS011;11982;50.810;4.442;2023-07-13T06:34:51;21.90;;;4.93;;
23608;SDS011;11982;50.810;4.442;2023-07-13T06:37:17;20.90;;;6.15;;
23608;SDS011;11982;50.810;4.442;2023-07-13T06:39:43;23.27;;;4.68;;
23608;SDS011;11982;50.810;4.442;2023-07-13T06:42:09;23.55;;;4.60;;
23608;SDS011;11982;50.810;4.442;2023-07-13T06:44:36;16.08;;;4.85;;
23608;SDS011;11982;50.810;4.442;2023-07-13T06:47:02;19.42;;;5.03;;
23608;SDS011;11982;50.810;4.442;2023-07-13T06:49:28;16.33;;;4.15;;
23608;SDS011;11982;50.810;4.442;2023-07-13T06:51:53;21.77;;;4.40;;
23608;SDS011;11982;50.810;4.442;2023-07-13T06:54:19;15.20;;;4.20;;
23608;SDS011;11982;50.810;4.442;2023-07-13T06:56:45;20.67;;;4.65;;
23608;SDS011;11982;50.810;4.442;2023-07-13T06:59:11;20.50;;;4.40;;
23608;SDS011;11982;50.810;4.442;2023-07-13T07:01:36;13.90;;;4.30;;
23608;SDS011;11982;50.810;4.442;2023-07-13T07:04:03;16.20;;;4.15;;
23608;SDS011;11982;50.810;4.442;2023-07-13T07:06:28;22.92;;;4.10;;
23608;SDS011;11982;50.810;4.442;2023-07-13T07:08:54;16.55;;;4.03;;
23608;SDS011;11982;50.810;4.442;2023-07-13T07:11:24;17.77;;;4.70;;
23608;SDS011;11982;50.810;4.442;2023-07-13T07:13:51;20.58;;;4.30;;
23608;SDS011;11982;50.810;4.442;2023-07-13T07:16:17;14.48;;;4.20;;
23608;SDS011;11982;50.810;4.442;2023-07-13T07:18:44;16.38;;;4.22;;
23608;SDS011;11982;50.810;4.442;2023-07-13T07:21:09;20.65;;;4.10;;
23608;SDS011;11982;50.810;4.442;2023-07-13T07:23:35;15.60;;;4.10;;
23608;SDS011;11982;50.810;4.442;2023-07-13T07:26:01;18.42;;;4.25;;
23608;SDS011;11982;50.810;4.442;2023-07-13T07:28:27;21.08;;;4.15;;
23608;SDS011;11982;50.810;4.442;2023-07-13T07:30:56;22.50;;;4.53;;
23608;SDS011;11982;50.810;4.442;2023-07-13T07:33:23;17.88;;;4.63;;
23608;SDS011;11982;50.810;4.442;2023-07-13T07:35:50;14.00;;;4.05;;
23608;SDS011;11982;50.810;4.442;2023-07-13T07:38:16;18.77;;;5.35;;
23608;SDS011;11982;50.810;4.442;2023-07-13T07:40:42;18.15;;;3.80;;
23608;SDS011;11982;50.810;4.442;2023-07-13T07:43:08;17.23;;;4.68;;
23608;SDS011;11982;50.810;4.442;2023-07-13T07:45:35;17.65;;;4.80;;
23608;SDS011;11982;50.810;4.442;2023-07-13T07:48:02;17.50;;;4.00;;
23608;SDS011;11982;50.810;4.442;2023-07-13T07:50:29;17.08;;;4.10;;
23608;SDS011;11982;50.810;4.442;2023-07-13T07:52:56;15.45;;;4.57;;
23608;SDS011;11982;50.810;4.442;2023-07-13T07:55:22;16.98;;;4.78;;
23608;SDS011;11982;50.810;4.442;2023-07-13T07:57:48;18.52;;;4.53;;
23608;SDS011;11982;50.810;4.442;2023-07-13T08:00:14;15.77;;;4.05;;
23608;SDS011;11982;50.810;4.442;2023-07-13T08:02:40;18.23;;;4.78;;
23608;SDS011;11982;50.810;4.442;2023-07-13T08:05:07;17.55;;;4.28;;
23608;SDS011;11982;50.810;4.442;2023-07-13T08:07:33;16.70;;;4.50;;
23608;SDS011;11982;50.810;4.442;2023-07-13T08:09:59;18.38;;;4.82;;
23608;SDS011;11982;50.810;4.442;2023-07-13T08:12:25;13.82;;;4.22;;
23608;SDS011;11982;50.810;4.442;2023-07-13T08:14:50;16.27;;;3.80;;
23608;SDS011;11982;50.810;4.442;2023-07-13T08:17:22;16.52;;;4.00;;
23608;SDS011;11982;50.810;4.442;2023-07-13T08:19:49;18.20;;;4.15;;
23608;SDS011;11982;50.810;4.442;2023-07-13T08:22:15;11.55;;;3.67;;
23608;SDS011;11982;50.810;4.442;2023-07-13T08:24:41;13.68;;;3.58;;
23608;SDS011;11982;50.810;4.442;2023-07-13T08:27:07;13.35;;;3.90;;
23608;SDS011;11982;50.810;4.442;2023-07-13T08:29:33;11.55;;;3.55;;
23608;SDS011;11982;50.810;4.442;2023-07-13T08:31:59;19.80;;;3.70;;
23608;SDS011;11982;50.810;4.442;2023-07-13T08:34:25;15.35;;;3.65;;
23608;SDS011;11982;50.810;4.442;2023-07-13T08:36:51;12.77;;;3.90;;
23608;SDS011;11982;50.810;4.442;2023-07-13T08:39:17;13.00;;;3.60;;
23608;SDS011;11982;50.810;4.442;2023-07-13T08:41:44;11.35;;;2.97;;
23608;SDS011;11982;50.810;4.442;2023-07-13T08:44:26;17.35;;;3.85;;
23608;SDS011;11982;50.810;4.442;2023-07-13T08:47:18;16.23;;;3.45;;
23608;SDS011;11982;50.810;4.442;2023-07-13T08:49:47;17.45;;;3.47;;
23608;SDS011;11982;50.810;4.442;2023-07-13T08:52:16;14.90;;;3.50;;
23608;SDS011;11982;50.810;4.442;2023-07-13T08:55:11;13.73;;;3.50;;
23608;SDS011;11982;50.810;4.442;2023-07-13T08:57:41;7.50;;;2.90;;
23608;SDS011;11982;50.810;4.442;2023-07-13T09:00:14;12.85;;;3.70;;
23608;SDS011;11982;50.810;4.442;2023-07-13T09:05:35;16.42;;;3.45;;
23608;SDS011;11982;50.810;4.442;2023-07-13T09:10:39;15.20;;;3.50;;
23608;SDS011;11982;50.810;4.442;2023-07-13T09:13:34;12.30;;;3.00;;
23608;SDS011;11982;50.810;4.442;2023-07-13T09:16:09;13.82;;;3.75;;
23608;SDS011;11982;50.810;4.442;2023-07-13T09:23:40;11.43;;;3.22;;
23608;SDS011;11982;50.810;4.442;2023-07-13T09:26:10;14.07;;;3.33;;
23608;SDS011;11982;50.810;4.442;2023-07-13T09:28:44;10.70;;;3.70;;
23608;SDS011;11982;50.810;4.442;2023-07-13T09:31:17;10.40;;;3.15;;
23608;SDS011;11982;50.810;4.442;2023-07-13T09:34:08;9.38;;;3.08;;
23608;SDS011;11982;50.810;4.442;2023-07-13T09:36:36;11.20;;;3.35;;
23608;SDS011;11982;50.810;4.442;2023-07-13T09:41:41;12.45;;;3.40;;
23608;SDS011;11982;50.810;4.442;2023-07-13T09:47:02;15.13;;;3.35;;
23608;SDS011;11982;50.810;4.442;2023-07-13T09:49:37;16.98;;;3.22;;
23608;SDS011;11982;50.810;4.442;2023-07-13T09:52:03;11.15;;;2.40;;
23608;SDS011;11982;50.810;4.442;2023-07-13T09:54:32;12.60;;;2.88;;
23608;SDS011;11982;50.810;4.442;2023-07-13T09:57:00;11.95;;;3.13;;
23608;SDS011;11982;50.810;4.442;2023-07-13T09:59:29;7.60;;;2.80;;
23608;SDS011;11982;50.810;4.442;2023-07-13T10:01:58;11.20;;;3.10;;
23608;SDS011;11982;50.810;4.442;2023-07-13T10:04:29;11.65;;;2.88;;
23608;SDS011;11982;50.810;4.442;2023-07-13T10:07:04;9.50;;;2.70;;
23608;SDS011;11982;50.810;4.442;2023-07-13T10:12:34;8.88;;;2.88;;
23608;SDS011;11982;50.810;4.442;2023-07-13T10:15:02;11.38;;;2.92;;
23608;SDS011;11982;50.810;4.442;2023-07-13T10:17:34;10.98;;;3.28;;
23608;SDS011;11982;50.810;4.442;2023-07-13T10:20:01;18.83;;;3.22;;
23608;SDS011;11982;50.810;4.442;2023-07-13T10:24:57;8.88;;;2.88;;
23608;SDS011;11982;50.810;4.442;2023-07-13T10:27:26;14.27;;;4.03;;
23608;SDS011;11982;50.810;4.442;2023-07-13T10:30:17;12.00;;;3.40;;
23608;SDS011;11982;50.810;4.442;2023-07-13T10:32:50;9.48;;;3.33;;
23608;SDS011;11982;50.810;4.442;2023-07-13T10:35:21;11.10;;;2.85;;
23608;SDS011;11982;50.810;4.442;2023-07-13T10:37:55;10.85;;;2.83;;
23608;SDS011;11982;50.810;4.442;2023-07-13T10:40:39;15.75;;;3.97;;
23608;SDS011;11982;50.810;4.442;2023-07-13T10:43:22;11.32;;;3.53;;
23608;SDS011;11982;50.810;4.442;2023-07-13T10:46:02;12.68;;;2.50;;
23608;SDS011;11982;50.810;4.442;2023-07-13T10:48:30;7.13;;;2.85;;
23608;SDS011;11982;50.810;4.442;2023-07-13T10:50:59;7.68;;;2.40;;
23608;SDS011;11982;50.810;4.442;2023-07-13T10:58:44;10.48;;;2.83;;
23608;SDS011;11982;50.810;4.442;2023-07-13T11:01:14;8.52;;;2.58;;
23608;SDS011;11982;50.810;4.442;2023-07-13T11:03:54;7.30;;;2.50;;
23608;SDS011;11982;50.810;4.442;2023-07-13T11:06:34;11.02;;;2.88;;
23608;SDS011;11982;50.810;4.442;2023-07-13T11:18:03;9.32;;;2.50;;
23608;SDS011;11982;50.810;4.442;2023-07-13T11:23:44;12.35;;;2.70;;
23608;SDS011;11982;50.810;4.442;2023-07-13T11:31:58;10.43;;;2.63;;
23608;SDS011;11982;50.810;4.442;2023-07-13T11:34:36;9.95;;;2.50;;
23608;SDS011;11982;50.810;4.442;2023-07-13T11:37:03;7.43;;;2.25;;
23608;SDS011;11982;50.810;4.442;2023-07-13T11:39:39;9.45;;;2.97;;
23608;SDS011;11982;50.810;4.442;2023-07-13T11:42:09;6.75;;;2.63;;
23608;SDS011;11982;50.810;4.442;2023-07-13T11:44:45;7.53;;;2.75;;
23608;SDS011;11982;50.810;4.442;2023-07-13T11:47:19;10.45;;;2.42;;
23608;SDS011;11982;50.810;4.442;2023-07-13T11:49:50;8.02;;;2.22;;
23608;SDS011;11982;50.810;4.442;2023-07-13T11:52:32;8.30;;;2.63;;
23608;SDS011;11982;50.810;4.442;2023-07-13T11:58:14;6.68;;;2.30;;
23608;SDS011;11982;50.810;4.442;2023-07-13T12:00:46;6.53;;;2.10;;
23608;SDS011;11982;50.810;4.442;2023-07-13T12:03:19;7.25;;;2.53;;
23608;SDS011;11982;50.810;4.442;2023-07-13T12:08:39;4.93;;;2.20;;
23608;SDS011;11982;50.810;4.442;2023-07-13T12:11:09;5.00;;;1.98;;
23608;SDS011;11982;50.810;4.442;2023-07-13T12:13:43;5.82;;;1.85;;
23608;SDS011;11982;50.810;4.442;2023-07-13T12:16:31;5.40;;;2.03;;
23608;SDS011;11982;50.810;4.442;2023-07-13T12:18:58;5.20;;;2.00;;
23608;SDS011;11982;50.810;4.442;2023-07-13T12:21:28;5.57;;;2.15;;
23608;SDS011;11982;50.810;4.442;2023-07-13T12:23:59;4.78;;;1.83;;
23608;SDS011;11982;50.810;4.442;2023-07-13T12:26:29;6.90;;;1.90;;
23608;SDS011;11982;50.810;4.442;2023-07-13T12:28:58;9.27;;;2.33;;
23608;SDS011;11982;50.810;4.442;2023-07-13T12:31:45;6.07;;;1.95;;
23608;SDS011;11982;50.810;4.442;2023-07-13T12:34:14;12.85;;;2.17;;
23608;SDS011;11982;50.810;4.442;2023-07-13T12:36:49;7.00;;;1.88;;
23608;SDS011;11982;50.810;4.442;2023-07-13T12:39:35;5.75;;;1.48;;
23608;SDS011;11982;50.810;4.442;2023-07-13T12:42:22;6.50;;;1.83;;
23608;SDS011;11982;50.810;4.442;2023-07-13T12:45:00;7.43;;;2.40;;
23608;SDS011;11982;50.810;4.442;2023-07-13T12:47:28;8.70;;;1.92;;
23608;SDS011;11982;50.810;4.442;2023-07-13T12:49:56;4.00;;;1.85;;
23608;SDS011;11982;50.810;4.442;2023-07-13T12:52:33;9.30;;;2.13;;
23608;SDS011;11982;50.810;4.442;2023-07-13T12:55:39;4.72;;;2.45;;
23608;SDS011;11982;50.810;4.442;2023-07-13T12:57:54;10.10;;;3.28;;
23608;SDS011;11982;50.810;4.442;2023-07-13T13:03:36;12.43;;;4.03;;
23608;SDS011;11982;50.810;4.442;2023-07-13T13:06:05;10.00;;;3.80;;
23608;SDS011;11982;50.810;4.442;2023-07-13T13:08:33;12.63;;;4.18;;
23608;SDS011;11982;50.810;4.442;2023-07-13T13:11:00;9.38;;;3.80;;
23608;SDS011;11982;50.810;4.442;2023-07-13T13:13:27;10.60;;;4.60;;
23608;SDS011;11982;50.810;4.442;2023-07-13T13:18:37;5.13;;;3.20;;
23608;SDS011;11982;50.810;4.442;2023-07-13T13:21:02;7.70;;;2.92;;
23608;SDS011;11982;50.810;4.442;2023-07-13T13:23:28;5.68;;;2.60;;
23608;SDS011;11982;50.810;4.442;2023-07-13T13:25:54;7.30;;;2.50;;
23608;SDS011;11982;50.810;4.442;2023-07-13T13:28:20;7.15;;;2.80;;
23608;SDS011;11982;50.810;4.442;2023-07-13T13:30:48;6.78;;;2.40;;
23608;SDS011;11982;50.810;4.442;2023-07-13T13:33:17;9.25;;;2.78;;
23608;SDS011;11982;50.810;4.442;2023-07-13T13:35:45;9.25;;;2.70;;
23608;SDS011;11982;50.810;4.442;2023-07-13T13:38:14;8.98;;;2.80;;
23608;SDS011;11982;50.810;4.442;2023-07-13T13:40:42;6.88;;;2.60;;
23608;SDS011;11982;50.810;4.442;2023-07-13T13:43:17;8.27;;;2.28;;
23608;SDS011;11982;50.810;4.442;2023-07-13T13:45:44;7.63;;;3.03;;
23608;SDS011;11982;50.810;4.442;2023-07-13T13:48:14;9.02;;;2.58;;
23608;SDS011;11982;50.810;4.442;2023-07-13T13:50:46;4.97;;;1.67;;
23608;SDS011;11982;50.810;4.442;2023-07-13T13:53:13;4.60;;;2.25;;
23608;SDS011;11982;50.810;4.442;2023-07-13T13:55:40;5.47;;;1.83;;
23608;SDS011;11982;50.810;4.442;2023-07-13T13:58:09;6.30;;;2.15;;
23608;SDS011;11982;50.810;4.442;2023-07-13T14:00:37;4.88;;;1.90;;
23608;SDS011;11982;50.810;4.442;2023-07-13T14:03:03;6.65;;;2.42;;
23608;SDS011;11982;50.810;4.442;2023-07-13T14:05:32;6.25;;;2.40;;
23608;SDS011;11982;50.810;4.442;2023-07-13T14:07:57;11.50;;;2.38;;
23608;SDS011;11982;50.810;4.442;2023-07-13T14:10:24;6.97;;;2.47;;
23608;SDS011;11982;50.810;4.442;2023-07-13T14:12:52;10.73;;;2.55;;
23608;SDS011;11982;50.810;4.442;2023-07-13T14:15:36;5.65;;;1.75;;
23608;SDS011;11982;50.810;4.442;2023-07-13T14:18:02;4.03;;;2.20;;
23608;SDS011;11982;50.810;4.442;2023-07-13T14:20:28;6.57;;;2.38;;
23608;SDS011;11982;50.810;4.442;2023-07-13T14:22:55;8.20;;;2.72;;
23608;SDS011;11982;50.810;4.442;2023-07-13T14:25:20;6.30;;;2.13;;
23608;SDS011;11982;50.810;4.442;2023-07-13T14:27:48;6.95;;;1.90;;
23608;SDS011;11982;50.810;4.442;2023-07-13T14:30:20;5.10;;;2.40;;
23608;SDS011;11982;50.810;4.442;2023-07-13T14:32:47;10.32;;;2.83;;
23608;SDS011;11982;50.810;4.442;2023-07-13T14:35:17;6.15;;;2.60;;
23608;SDS011;11982;50.810;4.442;2023-07-13T14:37:47;9.23;;;2.95;;
23608;SDS011;11982;50.810;4.442;2023-07-13T14:40:25;4.78;;;2.30;;
23608;SDS011;11982;50.810;4.442;2023-07-13T14:42:53;5.25;;;2.45;;
23608;SDS011;11982;50.810;4.442;2023-07-13T14:45:20;4.57;;;2.13;;
23608;SDS011;11982;50.810;4.442;2023-07-13T14:47:46;4.90;;;2.45;;
23608;SDS011;11982;50.810;4.442;2023-07-13T14:50:19;3.90;;;2.10;;
23608;SDS011;11982;50.810;4.442;2023-07-13T14:52:49;5.35;;;2.40;;
23608;SDS011;11982;50.810;4.442;2023-07-13T14:55:18;4.82;;;2.05;;
23608;SDS011;11982;50.810;4.442;2023-07-13T14:57:45;5.60;;;2.30;;
23608;SDS011;11982;50.810;4.442;2023-07-13T15:02:45;6.82;;;2.40;;
23608;SDS011;11982;50.810;4.442;2023-07-13T15:05:21;5.00;;;2.13;;
23608;SDS011;11982;50.810;4.442;2023-07-13T15:07:49;6.60;;;2.10;;
23608;SDS011;11982;50.810;4.442;2023-07-13T15:10:17;5.25;;;2.15;;
23608;SDS011;11982;50.810;4.442;2023-07-13T15:12:46;5.78;;;2.08;;
23608;SDS011;11982;50.810;4.442;2023-07-13T15:15:12;6.38;;;2.20;;
23608;SDS011;11982;50.810;4.442;2023-07-13T15:17:40;5.60;;;2.13;;
23608;SDS011;11982;50.810;4.442;2023-07-13T15:20:31;7.97;;;1.88;;
23608;SDS011;11982;50.810;4.442;2023-07-13T15:23:00;5.07;;;2.00;;
23608;SDS011;11982;50.810;4.442;2023-07-13T15:25:27;3.90;;;1.73;;
23608;SDS011;11982;50.810;4.442;2023-07-13T15:27:55;3.03;;;1.60;;
23608;SDS011;11982;50.810;4.442;2023-07-13T15:30:21;5.10;;;1.80;;
23608;SDS011;11982;50.810;4.442;2023-07-13T15:32:48;5.88;;;1.92;;
23608;SDS011;11982;50.810;4.442;2023-07-13T15:35:15;5.05;;;1.80;;
23608;SDS011;11982;50.810;4.442;2023-07-13T15:37:45;7.50;;;2.13;;
23608;SDS011;11982;50.810;4.442;2023-07-13T15:40:12;5.57;;;1.80;;
23608;SDS011;11982;50.810;4.442;2023-07-13T15:42:40;5.45;;;1.92;;
23608;SDS011;11982;50.810;4.442;2023-07-13T15:47:44;4.55;;;2.10;;
23608;SDS011;11982;50.810;4.442;2023-07-13T15:50:15;7.28;;;2.38;;
23608;SDS011;11982;50.810;4.442;2023-07-13T15:52:43;6.25;;;2.30;;